createdAt,value
2023-03-24T00:01:26.696Z,69.35
2023-03-24T00:03:54.927Z,69.45
2023-03-24T00:06:23.359Z,69.57
2023-03-24T00:08:51.508Z,69.69
2023-03-24T00:11:21.557Z,69.73
2023-03-24T00:13:50.765Z,69.97
2023-03-24T00:16:21.963Z,70.08
2023-03-24T00:18:54.452Z,70.10
2023-03-24T00:21:25.387Z,70.36
2023-03-24T00:23:55.753Z,70.72
2023-03-24T00:26:25.681Z,70.72
2023-03-24T00:28:55.646Z,71.19
2023-03-24T00:31:24.848Z,71.22
2023-03-24T00:33:54.340Z,71.28
2023-03-24T00:36:25.007Z,71.82
2023-03-24T00:38:54.173Z,71.69
2023-03-24T00:41:25.044Z,71.87
2023-03-24T00:43:57.092Z,72.09
2023-03-24T00:46:29.699Z,72.14
2023-03-24T00:49:07.972Z,72.30
2023-03-24T00:51:39.279Z,72.21
2023-03-24T00:54:09.484Z,72.05
2023-03-24T00:56:40.787Z,72.21
2023-03-24T00:59:10.757Z,72.34
2023-03-24T01:01:41.404Z,72.35
2023-03-24T01:04:10.662Z,72.66
2023-03-24T01:06:40.189Z,72.83
2023-03-24T01:09:08.969Z,73.01
2023-03-24T01:11:41.521Z,73.04
2023-03-24T01:14:11.476Z,73.37
2023-03-24T01:16:40.478Z,73.42
2023-03-24T01:19:12.047Z,73.63
2023-03-24T01:21:40.423Z,73.82
2023-03-24T01:24:09.128Z,73.79
2023-03-24T01:26:37.278Z,73.99
2023-03-24T01:29:06.383Z,74.33
2023-03-24T01:31:35.227Z,74.24
2023-03-24T01:34:04.160Z,74.49
2023-03-24T01:36:32.432Z,74.73
2023-03-24T01:39:01.584Z,74.77
2023-03-24T01:41:39.485Z,74.91
2023-03-24T01:44:36.170Z,75.05
2023-03-24T01:47:07.905Z,75.46
2023-03-24T01:49:45.740Z,75.33
2023-03-24T01:52:22.549Z,75.56
2023-03-24T01:54:59.179Z,75.72
2023-03-24T01:57:31.227Z,76.07
2023-03-24T02:00:05.169Z,76.26
2023-03-24T02:02:58.861Z,76.26
2023-03-24T02:05:35.600Z,76.35
2023-03-24T02:08:22.097Z,76.49
2023-03-24T02:10:52.637Z,76.53
2023-03-24T02:13:23.876Z,76.58
2023-03-24T02:16:03.850Z,76.96
2023-03-24T02:19:07.735Z,77.05
2023-03-24T02:21:50.554Z,77.25
2023-03-24T02:24:50.809Z,77.42
2023-03-24T02:27:27.756Z,77.70
2023-03-24T02:30:19.077Z,77.86
2023-03-24T02:32:53.105Z,78.00
2023-03-24T02:35:39.568Z,78.19
2023-03-24T02:38:07.659Z,78.35
2023-03-24T02:40:35.628Z,78.36
2023-03-24T02:43:37.899Z,78.21
2023-03-24T02:46:53.385Z,78.32
2023-03-24T02:49:41.314Z,78.41
2023-03-24T02:52:21.175Z,78.53
2023-03-24T02:55:00.988Z,78.73
2023-03-24T02:57:58.068Z,78.88
2023-03-24T03:01:05.988Z,79.08
2023-03-24T03:03:50.914Z,79.35
2023-03-24T03:06:24.837Z,79.42
2023-03-24T03:08:56.094Z,79.34
2023-03-24T03:11:24.156Z,79.59
2023-03-24T03:14:01.436Z,79.67
2023-03-24T03:16:38.767Z,79.79
2023-03-24T03:19:18.672Z,79.96
2023-03-24T03:21:50.693Z,80.06
2023-03-24T03:24:27.353Z,80.18
2023-03-24T03:27:15.079Z,80.29
2023-03-24T03:29:51.219Z,80.59
2023-03-24T03:32:28.519Z,80.54
2023-03-24T03:35:05.616Z,80.94
2023-03-24T03:37:44.850Z,80.89
2023-03-24T03:40:22.382Z,81.04
2023-03-24T03:42:54.234Z,81.08
2023-03-24T03:45:22.464Z,81.25
2023-03-24T03:47:51.693Z,81.34
2023-03-24T03:50:20.137Z,81.57
2023-03-24T03:52:48.709Z,81.53
2023-03-24T03:55:17.186Z,81.54
2023-03-24T03:57:46.556Z,81.58
2023-03-24T04:00:26.434Z,81.70
2023-03-24T04:03:33.765Z,81.90
2023-03-24T04:06:25.450Z,81.93
2023-03-24T04:09:04.007Z,82.16
2023-03-24T04:11:46.991Z,82.27
2023-03-24T04:14:33.805Z,82.16
2023-03-24T04:17:32.702Z,82.35
2023-03-24T04:20:19.933Z,82.09
2023-03-24T04:22:57.300Z,82.23
2023-03-24T04:25:45.353Z,82.36
2023-03-24T04:28:14.642Z,82.38
2023-03-24T04:30:48.139Z,82.51
2023-03-24T04:33:25.313Z,82.33
2023-03-24T04:36:06.902Z,82.36
2023-03-24T04:38:57.353Z,82.39
2023-03-24T04:41:38.584Z,82.85
2023-03-24T04:44:13.316Z,82.88
2023-03-24T04:46:57.081Z,82.89
2023-03-24T04:49:25.733Z,83.03
2023-03-24T04:51:55.067Z,83.14
2023-03-24T04:54:28.344Z,83.05
2023-03-24T04:57:03.007Z,82.63
2023-03-24T04:59:34.796Z,82.81
2023-03-24T05:02:04.967Z,82.66
2023-03-24T05:04:37.919Z,82.67
2023-03-24T05:07:15.802Z,82.71
2023-03-24T05:09:44.508Z,82.82
2023-03-24T05:12:13.334Z,82.98
2023-03-24T05:15:08.072Z,83.22
2023-03-24T05:17:37.728Z,83.29
2023-03-24T05:20:10.895Z,83.55
2023-03-24T05:22:40.644Z,83.38
2023-03-24T05:25:09.909Z,83.36
2023-03-24T05:27:38.684Z,83.17
2023-03-24T05:30:26.971Z,83.01
2023-03-24T05:33:01.415Z,83.17
2023-03-24T05:35:29.635Z,83.00
2023-03-24T05:37:57.899Z,83.00
2023-03-24T05:40:26.071Z,83.02
2023-03-24T05:43:23.326Z,82.93
2023-03-24T05:46:00.462Z,82.84
2023-03-24T05:48:31.757Z,82.67
2023-03-24T05:51:20.617Z,82.75
2023-03-24T05:53:53.516Z,82.85
2023-03-24T05:56:33.346Z,83.04
2023-03-24T05:59:07.869Z,82.83
2023-03-24T06:02:06.199Z,82.69
2023-03-24T06:04:57.976Z,82.58
2023-03-24T06:07:27.045Z,82.46
2023-03-24T06:09:58.372Z,82.20
2023-03-24T06:12:26.894Z,82.24
2023-03-24T06:14:58.165Z,82.20
2023-03-24T06:17:28.770Z,81.90
2023-03-24T06:20:05.272Z,81.52
2023-03-24T06:23:02.909Z,81.74
2023-03-24T06:25:44.991Z,81.35
2023-03-24T06:28:18.403Z,81.09
2023-03-24T06:30:47.622Z,80.95
2023-03-24T06:33:22.534Z,80.68
2023-03-24T06:35:54.877Z,80.64
2023-03-24T06:38:23.076Z,80.21
2023-03-24T06:40:51.120Z,79.91
2023-03-24T06:43:19.228Z,80.04
2023-03-24T06:45:47.402Z,79.71
2023-03-24T06:48:19.768Z,79.49
2023-03-24T06:50:48.301Z,79.50
2023-03-24T06:53:16.735Z,79.22
2023-03-24T06:55:46.296Z,79.04
2023-03-24T06:58:16.077Z,78.85
2023-03-24T07:00:47.188Z,78.85
2023-03-24T07:03:45.131Z,78.82
2023-03-24T07:06:29.965Z,78.44
2023-03-24T07:09:03.259Z,78.25
2023-03-24T07:11:31.903Z,78.22
2023-03-24T07:14:01.211Z,77.78
2023-03-24T07:16:30.176Z,77.76
2023-03-24T07:19:08.314Z,77.88
2023-03-24T07:21:37.296Z,77.78
2023-03-24T07:24:06.587Z,77.68
2023-03-24T07:27:00.740Z,77.17
2023-03-24T07:29:30.393Z,77.21
2023-03-24T07:32:25.112Z,77.32
2023-03-24T07:34:53.670Z,77.40
2023-03-24T07:37:22.040Z,77.75
2023-03-24T07:39:50.024Z,77.76
2023-03-24T07:42:18.285Z,77.93
2023-03-24T07:45:09.022Z,78.03
2023-03-24T07:47:37.217Z,78.31
2023-03-24T07:50:10.455Z,78.33
2023-03-24T07:52:40.269Z,78.93
2023-03-24T07:55:15.813Z,79.12
2023-03-24T07:58:00.110Z,79.49
2023-03-24T08:00:29.599Z,79.82
2023-03-24T08:03:14.922Z,79.88
2023-03-24T08:06:02.359Z,79.83
2023-03-24T08:08:38.223Z,80.24
2023-03-24T08:11:06.618Z,80.29
2023-03-24T08:13:34.789Z,80.07
2023-03-24T08:16:04.139Z,80.13
2023-03-24T08:18:35.332Z,80.27
2023-03-24T08:21:03.706Z,80.54
2023-03-24T08:23:32.494Z,80.19
2023-03-24T08:26:00.464Z,79.98
2023-03-24T08:28:28.644Z,79.99
2023-03-24T08:30:56.734Z,79.89
2023-03-24T08:33:25.181Z,79.88
2023-03-24T08:35:57.894Z,79.60
2023-03-24T08:38:30.861Z,79.31
2023-03-24T08:41:02.300Z,79.21
2023-03-24T08:43:31.515Z,79.33
2023-03-24T08:46:02.045Z,79.11
2023-03-24T08:48:31.192Z,78.90
2023-03-24T08:50:59.184Z,78.61
2023-03-24T08:53:31.873Z,78.72
2023-03-24T08:56:00.381Z,78.48
2023-03-24T08:58:28.546Z,78.07
2023-03-24T09:00:56.694Z,78.06
2023-03-24T09:03:25.015Z,77.94
2023-03-24T09:05:57.342Z,77.80
2023-03-24T09:08:26.442Z,77.29
2023-03-24T09:10:54.610Z,77.05
2023-03-24T09:13:22.820Z,76.84
2023-03-24T09:15:54.271Z,76.77
2023-03-24T09:18:22.468Z,76.00
2023-03-24T09:20:51.228Z,76.04
2023-03-24T09:23:21.162Z,75.63
2023-03-24T09:25:53.986Z,75.01
2023-03-24T09:28:22.989Z,74.32
2023-03-24T09:30:51.717Z,74.46
2023-03-24T09:33:19.944Z,74.13
2023-03-24T09:35:59.720Z,73.48
2023-03-24T09:38:30.115Z,73.09
2023-03-24T09:41:03.273Z,72.07
2023-03-24T09:43:41.150Z,71.98
2023-03-24T09:46:20.217Z,71.71
2023-03-24T09:48:55.185Z,71.19
2023-03-24T09:51:36.465Z,71.14
2023-03-24T09:54:36.876Z,70.62
2023-03-24T09:57:12.010Z,69.82
2023-03-24T09:59:40.805Z,69.57
2023-03-24T10:02:16.175Z,68.48
2023-03-24T10:04:45.327Z,68.10
2023-03-24T10:07:25.502Z,67.80
2023-03-24T10:09:59.480Z,67.25
2023-03-24T10:12:31.516Z,66.88
2023-03-24T10:18:13.134Z,65.64
2023-03-24T10:20:56.622Z,65.44
2023-03-24T10:23:44.248Z,65.01
2023-03-24T10:26:34.240Z,64.89
2023-03-24T10:29:22.197Z,64.83
2023-03-24T10:32:00.962Z,64.44
2023-03-24T10:34:33.304Z,64.63
2023-03-24T10:37:04.356Z,64.69
2023-03-24T10:39:44.332Z,64.49
2023-03-24T10:42:22.014Z,64.55
2023-03-24T10:44:51.983Z,64.72
2023-03-24T10:47:26.154Z,64.78
2023-03-24T10:49:58.476Z,64.92
2023-03-24T10:52:27.575Z,64.97
2023-03-24T10:55:04.256Z,64.94
2023-03-24T10:57:33.230Z,65.10
2023-03-24T11:00:18.622Z,65.09
2023-03-24T11:02:57.227Z,65.27
2023-03-24T11:05:33.582Z,65.28
2023-03-24T11:08:42.138Z,65.51
2023-03-24T11:11:14.765Z,65.91
2023-03-24T11:13:56.783Z,66.21
2023-03-24T11:16:29.935Z,66.47
2023-03-24T11:19:05.704Z,66.28
2023-03-24T11:21:37.083Z,66.47
2023-03-24T11:24:15.860Z,66.21
2023-03-24T11:26:59.202Z,66.07
2023-03-24T11:29:30.433Z,65.87
2023-03-24T11:32:01.736Z,65.46
2023-03-24T11:34:42.514Z,65.12
2023-03-24T11:37:33.409Z,64.57
2023-03-24T11:40:14.860Z,64.69
2023-03-24T11:42:50.873Z,64.32
2023-03-24T11:45:37.640Z,64.55
2023-03-24T11:48:26.235Z,64.35
2023-03-24T11:50:57.061Z,64.26
2023-03-24T11:53:35.052Z,64.10
2023-03-24T11:56:28.895Z,64.15
2023-03-24T11:59:22.674Z,63.72
2023-03-24T12:02:02.388Z,63.31
2023-03-24T12:04:31.044Z,62.68
2023-03-24T12:07:28.352Z,62.27
2023-03-24T12:10:08.012Z,62.13
2023-03-24T12:12:59.136Z,62.28
2023-03-24T12:15:45.836Z,62.70
2023-03-24T12:18:38.950Z,62.65
2023-03-24T12:21:35.720Z,62.18
2023-03-24T12:24:29.089Z,62.14
2023-03-24T12:27:00.427Z,62.03
2023-03-24T12:29:48.672Z,61.97
2023-03-24T12:32:43.392Z,61.45
2023-03-24T12:35:41.561Z,61.06
2023-03-24T12:38:12.390Z,60.67
2023-03-24T12:40:46.493Z,60.03
2023-03-24T12:43:31.000Z,59.66
2023-03-24T12:46:06.262Z,59.70
2023-03-24T12:48:49.019Z,59.05
2023-03-24T12:51:28.351Z,58.59
2023-03-24T12:54:05.327Z,57.96
2023-03-24T12:56:39.997Z,57.44
2023-03-24T12:59:30.439Z,57.18
2023-03-24T13:02:38.524Z,56.15
2023-03-24T13:05:16.182Z,55.73
2023-03-24T13:07:47.651Z,55.76
2023-03-24T13:10:23.453Z,55.47
2023-03-24T13:13:15.592Z,55.06
2023-03-24T13:15:52.319Z,55.06
2023-03-24T13:18:33.640Z,55.45
2023-03-24T13:21:13.385Z,55.74
2023-03-24T13:23:49.954Z,55.58
2023-03-24T13:26:24.581Z,55.26
2023-03-24T13:29:04.875Z,55.53
2023-03-24T13:31:46.389Z,54.67
2023-03-24T13:34:38.269Z,54.03
2023-03-24T13:37:13.180Z,54.17
2023-03-24T13:39:44.892Z,53.88
2023-03-24T13:43:07.497Z,53.65
2023-03-24T13:45:48.179Z,53.14
2023-03-24T13:48:20.837Z,53.40
2023-03-24T13:51:02.945Z,53.23
2023-03-24T13:53:33.470Z,53.28
2023-03-24T13:56:05.119Z,53.28
2023-03-24T13:59:06.893Z,53.06
2023-03-24T14:01:45.640Z,53.20
2023-03-24T14:04:19.332Z,53.16
2023-03-24T14:07:13.043Z,52.97
2023-03-24T14:09:58.483Z,53.17
2023-03-24T14:12:27.221Z,52.62
2023-03-24T14:15:17.218Z,52.14
2023-03-24T14:17:48.317Z,52.03
2023-03-24T14:20:28.331Z,52.09
2023-03-24T14:22:56.974Z,51.59
2023-03-24T14:25:29.168Z,51.56
2023-03-24T14:28:26.752Z,51.60
2023-03-24T14:30:58.628Z,51.53
2023-03-24T14:33:27.006Z,51.31
2023-03-24T14:36:06.690Z,51.33
2023-03-24T14:38:38.123Z,51.37
2023-03-24T14:41:12.547Z,51.27
2023-03-24T14:43:40.757Z,50.95
2023-03-24T14:46:21.114Z,50.58
2023-03-24T14:48:58.639Z,50.81
2023-03-24T14:51:41.531Z,50.52
2023-03-24T14:54:19.331Z,50.24
2023-03-24T14:56:53.406Z,50.32
2023-03-24T14:59:31.313Z,50.42
2023-03-24T15:02:06.184Z,50.46
2023-03-24T15:04:39.358Z,50.58
2023-03-24T15:07:14.207Z,50.42
2023-03-24T15:09:49.593Z,50.54
2023-03-24T15:12:18.043Z,50.50
2023-03-24T15:14:45.942Z,50.54
2023-03-24T15:17:25.051Z,50.63
2023-03-24T15:19:54.549Z,50.51
2023-03-24T15:22:22.506Z,50.23
2023-03-24T15:24:52.210Z,50.22
2023-03-24T15:27:29.201Z,50.42
2023-03-24T15:29:59.616Z,50.45
2023-03-24T15:32:31.933Z,50.75
2023-03-24T15:35:05.864Z,50.67
2023-03-24T15:37:36.702Z,50.77
2023-03-24T15:42:44.069Z,51.05
2023-03-24T15:45:22.303Z,51.23
2023-03-24T15:47:53.153Z,51.32
2023-03-24T15:50:33.471Z,51.57
2023-03-24T15:53:23.108Z,51.81
2023-03-24T15:56:07.134Z,52.29
2023-03-24T15:59:07.690Z,52.67
2023-03-24T16:01:38.755Z,53.12
2023-03-24T16:04:20.513Z,53.55
2023-03-24T16:06:53.628Z,53.82
2023-03-24T16:09:27.387Z,54.17
2023-03-24T16:11:56.161Z,54.56
2023-03-24T16:14:27.149Z,54.70
2023-03-24T16:16:57.651Z,54.67
2023-03-24T16:19:27.525Z,54.61
2023-03-24T16:21:55.978Z,54.46
2023-03-24T16:24:23.900Z,54.49
2023-03-24T16:26:51.923Z,54.69
2023-03-24T16:29:22.103Z,54.61
2023-03-24T16:31:56.365Z,54.83
2023-03-24T16:34:24.811Z,54.88
2023-03-24T16:36:54.495Z,55.08
2023-03-24T16:39:24.959Z,55.34
2023-03-24T16:41:53.749Z,55.45
2023-03-24T16:44:21.991Z,55.49
2023-03-24T16:46:54.513Z,55.63
2023-03-24T16:49:23.836Z,55.69
2023-03-24T16:51:52.974Z,56.12
2023-03-24T16:54:21.484Z,56.55
2023-03-24T16:56:49.666Z,56.89
2023-03-24T16:59:17.719Z,57.10
2023-03-24T17:01:46.573Z,57.18
2023-03-24T17:04:20.278Z,57.57
2023-03-24T17:06:52.776Z,58.07
2023-03-24T17:09:21.310Z,58.40
2023-03-24T17:11:52.683Z,58.99
2023-03-24T17:14:21.546Z,59.58
2023-03-24T17:16:52.686Z,60.25
2023-03-24T17:19:22.811Z,60.91
2023-03-24T17:21:59.562Z,61.42
2023-03-24T17:24:28.400Z,62.23
2023-03-24T17:26:56.584Z,63.00
2023-03-24T17:29:24.552Z,63.62
2023-03-24T17:31:54.117Z,64.23
2023-03-24T17:34:22.515Z,64.88
2023-03-24T17:36:51.449Z,65.41
2023-03-24T17:39:21.411Z,68.55
2023-03-24T17:41:50.045Z,67.50
2023-03-24T17:44:18.042Z,67.70
2023-03-24T17:46:46.219Z,68.00
2023-03-24T17:49:14.585Z,68.47
2023-03-24T17:51:42.629Z,68.99
2023-03-24T17:54:11.828Z,69.40
2023-03-24T17:56:40.440Z,69.80
2023-03-24T17:59:09.266Z,70.19
2023-03-24T18:01:39.284Z,70.70
2023-03-24T18:04:07.825Z,71.24
2023-03-24T18:06:36.010Z,71.62
2023-03-24T18:09:04.678Z,72.23
2023-03-24T18:11:32.598Z,72.57
2023-03-24T18:14:00.567Z,73.04
2023-03-24T18:16:31.970Z,73.43
2023-03-24T18:19:01.801Z,73.78
2023-03-24T18:21:31.391Z,74.21
2023-03-24T18:23:59.735Z,74.47
2023-03-24T18:26:28.045Z,74.96
2023-03-24T18:28:56.333Z,75.29
2023-03-24T18:31:26.268Z,75.58
2023-03-24T18:33:55.664Z,75.79
2023-03-24T18:36:26.777Z,76.09
2023-03-24T18:39:07.346Z,76.30
2023-03-24T18:41:39.135Z,76.46
2023-03-24T18:44:11.264Z,76.82
2023-03-24T18:46:40.373Z,77.09
2023-03-24T18:49:13.228Z,77.33
2023-03-24T18:51:42.279Z,77.54
2023-03-24T18:54:12.000Z,77.74
2023-03-24T18:56:40.142Z,77.98
2023-03-24T18:59:09.187Z,78.28
2023-03-24T19:01:37.912Z,78.36
2023-03-24T19:04:06.362Z,78.70
2023-03-24T19:06:35.049Z,78.84
2023-03-24T19:09:05.581Z,79.07
2023-03-24T19:11:33.722Z,79.18
2023-03-24T19:14:03.019Z,79.43
2023-03-24T19:16:31.589Z,79.53
2023-03-24T19:19:00.262Z,79.56
2023-03-24T19:21:29.364Z,79.73
2023-03-24T19:23:59.077Z,79.73
2023-03-24T19:26:28.193Z,79.98
2023-03-24T19:28:57.754Z,80.06
2023-03-24T19:31:27.158Z,80.16
2023-03-24T19:33:55.449Z,80.33
2023-03-24T19:36:25.482Z,80.55
2023-03-24T19:38:53.978Z,80.62
2023-03-24T19:41:26.295Z,80.80
2023-03-24T19:43:55.082Z,80.95
2023-03-24T19:46:24.343Z,80.96
2023-03-24T19:48:52.458Z,81.20
2023-03-24T19:51:21.358Z,81.32
2023-03-24T19:53:50.114Z,81.47
2023-03-24T19:56:20.752Z,81.61
2023-03-24T19:58:49.337Z,81.78
2023-03-24T20:01:17.792Z,82.00
2023-03-24T20:03:46.412Z,82.18
2023-03-24T20:06:15.878Z,82.30
2023-03-24T20:08:45.595Z,82.38
2023-03-24T20:11:13.598Z,82.60
2023-03-24T20:13:44.154Z,82.54
2023-03-24T20:16:15.204Z,82.66
2023-03-24T20:18:46.034Z,82.59
2023-03-24T20:21:22.682Z,82.69
2023-03-24T20:23:54.145Z,82.90
2023-03-24T20:26:26.494Z,82.99
2023-03-24T20:28:58.153Z,83.25
2023-03-24T20:31:30.165Z,83.43
2023-03-24T20:34:02.208Z,83.64
2023-03-24T20:36:34.370Z,83.80
2023-03-24T20:39:06.064Z,83.72
2023-03-24T20:41:38.175Z,83.76
2023-03-24T20:44:12.220Z,83.79
2023-03-24T20:46:45.885Z,83.61
2023-03-24T20:49:18.208Z,83.79
2023-03-24T20:51:49.170Z,83.93
2023-03-24T20:54:22.241Z,84.14
2023-03-24T20:56:53.274Z,84.31
2023-03-24T20:59:24.219Z,84.39
2023-03-24T21:01:56.205Z,84.66
2023-03-24T21:04:29.260Z,85.28
2023-03-24T21:07:01.597Z,85.87
2023-03-24T21:09:33.255Z,85.91
2023-03-24T21:12:06.558Z,85.97
2023-03-24T21:22:37.901Z,85.93
2023-03-24T21:25:05.962Z,86.01
2023-03-24T21:27:32.716Z,85.88
2023-03-24T21:29:59.936Z,85.80
2023-03-24T21:32:27.032Z,88.35
2023-03-24T21:34:53.756Z,91.16
2023-03-24T21:37:21.114Z,91.91
2023-03-24T21:39:47.750Z,92.39
2023-03-24T21:42:18.828Z,92.21
2023-03-24T21:44:45.682Z,91.36
2023-03-24T21:47:12.476Z,90.52
2023-03-24T21:49:39.363Z,89.61
2023-03-24T21:52:06.297Z,88.56
2023-03-24T21:54:33.199Z,88.50
2023-03-24T21:57:00.292Z,88.28
2023-03-24T21:59:27.143Z,87.77
2023-03-24T22:01:53.850Z,87.61
2023-03-24T22:04:20.569Z,87.52
2023-03-24T22:06:47.478Z,87.57
2023-03-24T22:09:13.969Z,87.49
2023-03-24T22:11:42.369Z,87.61
2023-03-24T22:14:09.416Z,87.84
2023-03-24T22:16:36.134Z,87.73
2023-03-24T22:19:02.952Z,87.71
2023-03-24T22:21:29.587Z,87.67
2023-03-24T22:23:56.345Z,87.79
2023-03-24T22:26:23.182Z,87.72
2023-03-24T22:28:50.429Z,87.67
2023-03-24T22:31:17.673Z,87.74
2023-03-24T22:33:44.456Z,87.52
2023-03-24T22:36:11.264Z,87.44
2023-03-24T22:38:38.304Z,87.12
2023-03-24T22:41:07.208Z,86.85
2023-03-24T22:43:35.858Z,86.86
2023-03-24T22:46:03.192Z,86.82
2023-03-24T22:48:30.281Z,87.11
2023-03-24T22:50:56.818Z,87.14
2023-03-24T22:53:23.653Z,87.45
2023-03-24T22:55:50.992Z,87.62
2023-03-24T22:58:17.879Z,87.79
2023-03-24T23:00:49.312Z,87.93
2023-03-24T23:03:16.242Z,87.92
2023-03-24T23:05:45.134Z,88.27
2023-03-24T23:08:14.641Z,87.94
2023-03-24T23:10:43.944Z,88.02
2023-03-24T23:13:11.733Z,87.83
2023-03-24T23:15:41.792Z,87.91
2023-03-24T23:18:08.528Z,87.84
2023-03-24T23:20:36.020Z,87.91
2023-03-24T23:23:05.131Z,87.79
2023-03-24T23:25:43.838Z,87.63
2023-03-24T23:28:12.134Z,87.88
2023-03-24T23:30:40.677Z,87.91
2023-03-24T23:33:08.384Z,87.77
2023-03-24T23:35:36.783Z,87.99
2023-03-24T23:38:05.010Z,87.87
2023-03-24T23:40:31.783Z,87.96
2023-03-24T23:42:58.513Z,88.05
2023-03-24T23:45:25.738Z,87.95
2023-03-24T23:47:53.268Z,88.13
2023-03-24T23:50:20.673Z,87.92
2023-03-24T23:52:47.838Z,88.19
2023-03-24T23:55:18.211Z,88.42
2023-03-24T23:57:46.215Z,88.42
